SBSP Informações do Aeroporto

Informações da Pista
Pista 17L Comprimento 4708 ft Largura 148 ft
Elevação 0 ft Limite 0 ft Heading 0
Pista 35R Comprimento 4708 ft Largura 148 ft
Elevação 0 ft Limite 0 ft Heading 0
Pista 17R Comprimento 6365 ft Largura 148 ft
Elevação 0 ft Limite 0 ft Heading 0
Pista 35L Comprimento 6365 ft Largura 148 ft
Elevação 0 ft Limite 0 ft Heading 0
Frequências do Aeroporto
Tipo APP Nome SAO PAULO Frequência 119.8 MHZ
Tipo ATIS Nome ATIS Frequência 127.65 MHZ
Tipo CLD Nome CLNC DEL Frequência 120.6 MHZ
Tipo GND Nome GND Frequência 121.9 MHZ
Tipo TWR Nome SAO PAULO Frequência 127.15 MHZ
Navaids do Aeroporto
Tipo VOR-DME Nome Congonhas Frequência 116900 KHZ
Tipo NDB Nome Diadema Frequência 200 KHZ
Tipo NDB Nome Mada Frequência 290 KHZ
Tipo NDB Nome Metro Frequência 330 KHZ
Tipo NDB Nome Sao Paulo Frequência 250 KHZ
Informações meteorológicas do aeroporto e NOTAM
ADDS - METARS form results

(0358 UTC 24 November 2020)
Data provider http://aviationweather.gov/metar/data/
 
METAR text: SBSP 240354Z AUTO 13010KT 9999 BKN007 BKN011 OVC013 18/15 Q1023
Conditions at: SBSP (SAO PAULO/CONGON, BR) observed 0354 UTC 24 November 2020
Temperature: 18.0°C (64°F)
Dewpoint: 15.0°C (59°F) [RH = 83%]
Pressure (altimeter): 30.21 inches Hg (1023.0 mb)
Winds: from the SE (130 degrees) at 12 MPH (10 knots; 5.1 m/s)
Visibility: 6 or more miles (10+ km)
Ceiling: 700 feet AGL
Clouds: broken clouds at 700 feet AGL
broken clouds at 1100 feet AGL
overcast cloud deck at 1300 feet AGL
Weather: no significant weather observed at this time

METAR text: SBSP 240308Z AUTO 14008KT 9999 BKN009 BKN013 OVC029 18/14 Q1023
Conditions at: SBSP (SAO PAULO/CONGON, BR) observed 0308 UTC 24 November 2020
Temperature: 18.0°C (64°F)
Dewpoint: 14.0°C (57°F) [RH = 77%]
Pressure (altimeter): 30.21 inches Hg (1023.0 mb)
Winds: from the SE (140 degrees) at 9 MPH (8 knots; 4.1 m/s)
Visibility: 6 or more miles (10+ km)
Ceiling: 900 feet AGL
Clouds: broken clouds at 900 feet AGL
broken clouds at 1300 feet AGL
overcast cloud deck at 2900 feet AGL
Weather: no significant weather observed at this time

METAR text: SBSP 240300Z AUTO 13008KT 110V170 9999 BKN011 BKN013 OVC037 18/14 Q1023
Conditions at: SBSP (SAO PAULO/CONGON, BR) observed 0300 UTC 24 November 2020
Temperature: 18.0°C (64°F)
Dewpoint: 14.0°C (57°F) [RH = 77%]
Pressure (altimeter): 30.21 inches Hg (1023.0 mb)
Winds: from the SE (130 degrees) at 9 MPH (8 knots; 4.1 m/s)
Visibility: 6 or more miles (10+ km)
Ceiling: 1100 feet AGL
Clouds: broken clouds at 1100 feet AGL
broken clouds at 1300 feet AGL
overcast cloud deck at 3700 feet AGL
Weather: no significant weather observed at this time

Forecast for: SBSP (SAO PAULO/CONGON, BR)
Text: TAF SBSP 232215Z 2400/2412 12007KT 9999 BKN015 TN16/2409Z TX21/2411Z
Forecast period: 0000 to 1200 UTC 24 November 2020
Forecast type: FROM: standard forecast or significant change
Winds: from the ESE (120 degrees) at 8 MPH (7 knots; 3.6 m/s)
Visibility: 6 or more miles (10+ km)
Ceiling: 1500 feet AGL
Clouds: broken clouds at 1500 feet AGL
Weather: no significant weather forecast for this period
Text: TEMPO 2400/2404 FEW013
Forecast period: 0000 to 0400 UTC 24 November 2020
Forecast type: TEMPORARY: The following changes expected for less than half the time period
Visibility: missing
Ceiling: at least 12,000 feet AGL
Clouds: few clouds at 1300 feet AGL
Weather: no significant weather forecast for this period
Text: PROB30 2404/2411 14002KT 8000 NSC RMK PHM
Forecast period: 0400 to 1100 UTC 24 November 2020
Forecast type: PROBABLE: 30 percent likelihood of the following during this time
Winds: from the SE (140 degrees) at 2 MPH (2 knots; 1.0 m/s)
Visibility: 5 miles (8 km)
Ceiling: unknown
Clouds: missing
Weather: no significant weather forecast for this period